Somerset, NJ - U.S.A.

40° 30' 13"N, 74° 29' 17"W, Elevation 55 ft.

Tuesday, January 27, 2015
7:20:00 AM (Eastern)

27th day of the year

Updated and refreshed every 2 minutes. Weather computer in use: Davis Vantage PRO2 Plus


Current Weather:

Current Today's Highs and Lows
Temperature 22.9°F (-5.1°C) ↑ 23.9° 12:00 AM
21.7° 5:31 AM
Dew Point 20.8°F (-6.2°C) ↑ 20.9° 12:00 AM
19.3° 4:50 AM
Humidity 91% 91% 5:28 AM
88% 12:00 AM
Wind Gust NNW 10 mph N 20 12:36 AM
N 0 12:00 AM
Wind Speed NNW 4 mph ↓
Light breeze (2)
N 10 5:33 AM
NNW 0 7:06 AM
Precipitation 0.00" (0.00 mm) 1
Last 24 hours 0.00"
Instantaneous rate 0.00"/hr
Storm total 0.00"
0.00"2 12:00 AM
0.00"2 12:00 AM
Barometer 29.701" (1005.8 mb)
Rising
29.701" 7:14 AM
29.680" 12:59 AM
Wind Chill Gust 14°F (-10°C) 24° 12:00 AM
7° 5:46 AM
Wind Chill Avg 18°F (-8°C) 23° 1:23 AM
11° 5:33 AM
Heat Index 22°F (-5.6°C) 23° 12:00 AM
21° 4:58 AM
Sunshine 0 W/m2
Sunshine minutes 0
0 12:00 AM
0 12:00 AM
UV Index  0.0 0.0 12:00 AM
0.0 12:00 AM
1. Daily total rainfall.
2. Maximum and minimum rainfall are the instantaneous rainfall rates.

'KSOM' METAR REPORT:

METAR KSOM 271220Z AUTO 34004KT M05/M06 A2970 RMK AO1 SLP058 T10511062 

Yesterday's Weather and More...

Webcam
EBWeather Image

Video - Last 3 Hours

Video - Yesterday

Video - Last 3 Days

NJ Region Surface Map
NJ Sfc Map

Weather Data from Somerset, NJ

Data generated by WxSolution Version 1.8.7, Build 2013.11.03.